createdAt,value
2023-05-15T00:02:12.828Z,5.20
2023-05-15T00:06:14.867Z,4.77
2023-05-15T00:10:16.762Z,4.93
2023-05-15T00:14:18.564Z,5.97
2023-05-15T00:18:20.276Z,5.17
2023-05-15T00:22:21.982Z,5.17
2023-05-15T00:26:23.880Z,5.33
2023-05-15T00:30:25.638Z,5.17
2023-05-15T00:34:27.436Z,5.67
2023-05-15T00:38:29.140Z,5.43
2023-05-15T00:42:31.039Z,5.53
2023-05-15T00:46:33.190Z,6.13
2023-05-15T00:50:34.943Z,6.70
2023-05-15T00:54:36.749Z,6.63
2023-05-15T00:58:38.771Z,6.70
2023-05-15T01:02:40.625Z,6.37
2023-05-15T01:06:43.714Z,5.90
2023-05-15T01:10:45.721Z,5.93
2023-05-15T01:14:47.445Z,6.30
2023-05-15T01:18:49.603Z,5.73
2023-05-15T01:23:12.141Z,5.60
2023-05-15T01:27:37.249Z,6.10
2023-05-15T01:31:39.183Z,5.60
2023-05-15T01:36:06.119Z,6.33
2023-05-15T01:40:08.132Z,6.07
2023-05-15T01:44:29.265Z,5.87
2023-05-15T01:48:31.097Z,5.63
2023-05-15T01:52:37.108Z,5.90
2023-05-15T01:56:40.525Z,6.60
2023-05-15T02:00:49.335Z,5.97
2023-05-15T02:04:58.420Z,6.50
2023-05-15T02:09:02.281Z,6.60
2023-05-15T02:13:13.613Z,8.20
2023-05-15T02:17:22.373Z,6.70
2023-05-15T02:21:30.323Z,6.53
2023-05-15T02:25:57.812Z,5.97
2023-05-15T02:30:20.784Z,6.30
2023-05-15T02:34:35.366Z,6.07
2023-05-15T02:38:41.191Z,5.87
2023-05-15T02:42:43.950Z,5.90
2023-05-15T02:46:46.763Z,6.70
2023-05-15T02:50:48.513Z,6.00
2023-05-15T02:54:50.273Z,6.13
2023-05-15T02:58:51.953Z,6.10
2023-05-15T03:02:53.814Z,6.77
2023-05-15T03:06:55.707Z,6.40
2023-05-15T03:10:58.171Z,5.70
2023-05-15T03:15:00.095Z,5.83
2023-05-15T03:19:01.883Z,6.30
2023-05-15T03:23:03.616Z,6.30
2023-05-15T03:27:05.675Z,8.03
2023-05-15T03:31:08.735Z,7.50
2023-05-15T03:35:10.867Z,7.30
2023-05-15T03:39:12.737Z,6.67
2023-05-15T03:43:14.498Z,7.83
2023-05-15T03:47:16.818Z,7.17
2023-05-15T03:51:18.548Z,6.60
2023-05-15T03:55:20.319Z,6.30
2023-05-15T03:59:22.081Z,5.83
2023-05-15T04:03:24.156Z,5.60
2023-05-15T04:07:26.651Z,7.47
2023-05-15T04:11:28.695Z,5.93
2023-05-15T04:15:30.610Z,7.10
2023-05-15T04:19:32.421Z,7.30
2023-05-15T04:23:34.346Z,5.40
2023-05-15T04:27:36.604Z,5.90
2023-05-15T04:31:38.733Z,6.20
2023-05-15T04:35:40.696Z,4.93
2023-05-15T04:40:06.921Z,5.27
2023-05-15T04:48:59.396Z,5.37
2023-05-15T04:49:23.837Z,4.90
2023-05-15T04:53:01.283Z,5.17
2023-05-15T04:57:03.374Z,6.77
2023-05-15T05:01:09.012Z,5.43
2023-05-15T05:06:08.244Z,6.27
2023-05-15T05:11:37.624Z,6.17
2023-05-15T05:15:41.520Z,6.60
2023-05-15T05:19:43.386Z,7.87
2023-05-15T05:23:48.209Z,7.20
2023-05-15T05:27:50.005Z,7.03
2023-05-15T05:31:51.902Z,7.90
2023-05-15T05:35:53.780Z,6.60
2023-05-15T05:39:55.776Z,6.13
2023-05-15T05:44:09.061Z,7.13
2023-05-15T05:48:11.034Z,8.17
2023-05-15T05:52:12.981Z,6.30
2023-05-15T05:56:14.862Z,5.40
2023-05-15T06:00:17.052Z,7.47
2023-05-15T06:04:19.202Z,5.97
2023-05-15T06:08:28.648Z,5.00
2023-05-15T06:12:30.433Z,7.33
2023-05-15T06:16:33.150Z,4.70
2023-05-15T06:20:37.067Z,5.83
2023-05-15T06:24:39.062Z,6.57
2023-05-15T06:28:44.306Z,5.23
2023-05-15T06:32:46.280Z,5.10
2023-05-15T06:36:48.185Z,5.50
2023-05-15T06:45:40.328Z,6.37
2023-05-15T06:49:46.065Z,7.03
2023-05-15T06:53:49.113Z,5.90
2023-05-15T06:57:50.962Z,5.23
2023-05-15T07:01:52.989Z,5.17
2023-05-15T07:05:54.910Z,6.00
2023-05-15T07:09:56.919Z,5.43
2023-05-15T07:13:58.749Z,7.20
2023-05-15T07:18:00.954Z,6.30
2023-05-15T07:22:03.469Z,6.37
2023-05-15T07:26:06.428Z,6.63
2023-05-15T07:30:12.222Z,6.07
2023-05-15T07:34:17.204Z,9.23
2023-05-15T07:38:19.025Z,6.40
2023-05-15T07:42:20.948Z,7.30
2023-05-15T07:46:22.845Z,6.60
2023-05-15T07:50:25.081Z,6.80
2023-05-15T07:54:27.043Z,7.73
2023-05-15T07:58:31.308Z,6.70
2023-05-15T08:02:34.272Z,7.30
2023-05-15T08:06:38.322Z,7.43
2023-05-15T08:10:40.301Z,7.13
2023-05-15T08:14:42.553Z,7.33
2023-05-15T08:18:47.395Z,8.23
2023-05-15T08:22:51.867Z,7.40
2023-05-15T08:26:53.718Z,7.90
2023-05-15T08:30:55.673Z,7.13
2023-05-15T08:34:58.306Z,10.43
2023-05-15T08:39:00.277Z,7.63
2023-05-15T08:43:04.443Z,7.60
2023-05-15T08:47:06.447Z,7.80
2023-05-15T08:51:09.983Z,7.83
2023-05-15T08:55:12.026Z,7.27
2023-05-15T08:59:13.809Z,7.57
2023-05-15T09:03:16.596Z,7.90
2023-05-15T09:07:18.594Z,10.03
2023-05-15T09:11:21.862Z,7.97
2023-05-15T09:15:25.583Z,7.87
2023-05-15T09:19:27.886Z,8.27
2023-05-15T09:23:34.786Z,7.77
2023-05-15T09:27:50.907Z,9.17
2023-05-15T09:31:52.969Z,9.53
2023-05-15T09:35:57.416Z,9.53
2023-05-15T09:44:52.432Z,8.47
2023-05-15T09:49:23.483Z,8.07
2023-05-15T09:53:45.557Z,8.93
2023-05-15T09:58:55.755Z,7.67
2023-05-15T10:08:32.278Z,10.67
2023-05-15T10:13:23.251Z,8.03
2023-05-15T10:22:35.402Z,8.07
2023-05-15T10:38:06.483Z,7.60
2023-05-15T10:47:38.788Z,7.53
2023-05-15T10:51:41.334Z,7.10
2023-05-15T10:55:43.176Z,7.00
2023-05-15T11:09:46.424Z,6.97
2023-05-15T11:14:14.686Z,8.37
2023-05-15T11:33:07.589Z,8.40
2023-05-15T11:39:03.190Z,8.13
2023-05-15T11:43:44.754Z,9.50
2023-05-15T11:48:24.367Z,7.97
2023-05-15T11:53:50.782Z,8.30
2023-05-15T11:58:26.871Z,9.33
2023-05-15T12:03:07.442Z,8.87
2023-05-15T12:21:47.953Z,9.47
2023-05-15T12:25:50.912Z,8.87
2023-05-15T12:29:53.875Z,10.10
2023-05-15T12:33:56.268Z,9.87
2023-05-15T12:37:58.192Z,9.27
2023-05-15T12:41:59.977Z,10.07
2023-05-15T12:46:02.042Z,10.10
2023-05-15T12:50:11.336Z,10.20
2023-05-15T12:54:20.287Z,9.23
2023-05-15T12:58:22.073Z,9.47
2023-05-15T13:02:23.889Z,8.57
2023-05-15T13:06:41.884Z,10.60
2023-05-15T13:10:59.810Z,8.43
2023-05-15T13:15:09.768Z,6.63
2023-05-15T13:19:18.297Z,5.90
2023-05-15T13:23:56.531Z,7.33
2023-05-15T13:28:01.555Z,8.17
2023-05-15T13:32:11.088Z,9.87
2023-05-15T13:36:16.349Z,9.27
2023-05-15T13:40:18.257Z,8.70
2023-05-15T13:44:22.770Z,8.87
2023-05-15T13:48:27.309Z,9.43
2023-05-15T13:52:32.008Z,8.40
2023-05-15T13:56:36.703Z,10.43
2023-05-15T14:00:50.627Z,8.70
2023-05-15T14:04:53.602Z,8.40
2023-05-15T14:08:55.818Z,8.53
2023-05-15T14:12:59.402Z,8.30
2023-05-15T14:17:02.569Z,7.33
2023-05-15T14:21:12.362Z,7.83
2023-05-15T14:25:14.145Z,7.93
2023-05-15T14:29:15.918Z,8.47
2023-05-15T14:33:17.677Z,9.50
2023-05-15T14:37:19.864Z,9.33
2023-05-15T14:41:29.401Z,9.37
2023-05-15T14:45:44.144Z,9.80
2023-05-15T14:49:46.678Z,8.43
2023-05-15T14:54:07.273Z,8.63
2023-05-15T14:58:20.661Z,7.70
2023-05-15T15:02:24.941Z,7.53
2023-05-15T15:07:43.472Z,8.50
2023-05-15T15:16:50.734Z,7.77
2023-05-15T15:20:59.795Z,7.40
2023-05-15T15:51:53.348Z,6.50
2023-05-15T15:55:55.878Z,10.00
2023-05-15T15:59:58.093Z,8.37
2023-05-15T16:04:00.340Z,6.77
2023-05-15T16:08:04.713Z,8.13
2023-05-15T16:12:06.720Z,9.53
2023-05-15T16:16:08.738Z,8.10
2023-05-15T16:36:25.021Z,9.90
2023-05-15T16:40:31.574Z,8.17
2023-05-15T16:44:46.521Z,7.63
2023-05-15T16:48:59.247Z,7.17
2023-05-15T16:53:12.651Z,7.20
2023-05-15T17:02:42.290Z,6.87
2023-05-15T17:06:44.593Z,6.20
2023-05-15T17:10:56.595Z,6.13
2023-05-15T17:15:00.114Z,6.03
2023-05-15T17:19:07.922Z,6.37
2023-05-15T17:23:16.121Z,7.87
2023-05-15T17:27:22.586Z,9.03
2023-05-15T17:36:01.651Z,8.10
2023-05-15T17:40:09.498Z,6.77
2023-05-15T17:44:12.158Z,7.60
2023-05-15T17:48:24.676Z,6.97
2023-05-15T17:52:30.158Z,7.03
2023-05-15T17:56:33.478Z,8.57
2023-05-15T18:00:45.873Z,7.50
2023-05-15T18:04:50.235Z,7.73
2023-05-15T18:09:03.415Z,7.50
2023-05-15T18:13:37.772Z,6.10
2023-05-15T18:23:00.398Z,5.63
2023-05-15T18:27:10.619Z,6.37
2023-05-15T18:31:20.928Z,5.50
2023-05-15T18:40:11.125Z,7.47
2023-05-15T18:44:41.281Z,6.23
2023-05-15T20:10:03.687Z,11.20
2023-05-15T20:15:15.824Z,9.83
2023-05-15T20:19:31.669Z,10.90
2023-05-15T20:23:38.491Z,10.27
2023-05-15T20:28:13.625Z,9.60
2023-05-15T20:32:17.985Z,10.10
2023-05-15T20:36:20.193Z,9.13
2023-05-15T20:40:28.266Z,10.13
2023-05-15T20:44:30.387Z,9.77
2023-05-15T20:48:32.133Z,8.40
2023-05-15T20:52:33.946Z,6.90
2023-05-15T20:56:59.073Z,7.67
2023-05-15T21:01:01.290Z,7.03
2023-05-15T21:05:03.257Z,6.67
2023-05-15T21:09:05.199Z,7.60
2023-05-15T21:13:07.004Z,7.60
2023-05-15T21:17:09.140Z,6.97
2023-05-15T21:21:11.084Z,8.67
2023-05-15T21:25:15.129Z,7.73
2023-05-15T21:29:20.050Z,7.23
2023-05-15T21:33:21.881Z,7.60
2023-05-15T21:37:23.678Z,11.97
2023-05-15T21:41:26.168Z,7.63
2023-05-15T21:45:27.901Z,7.27
2023-05-15T21:49:29.608Z,7.87
2023-05-15T21:53:31.330Z,7.80
2023-05-15T21:57:33.074Z,9.30
2023-05-15T22:01:36.306Z,7.83
2023-05-15T22:05:38.202Z,7.97
2023-05-15T22:09:40.059Z,8.07
2023-05-15T22:13:42.241Z,8.13
2023-05-15T22:17:44.029Z,8.73
2023-05-15T22:21:45.972Z,7.93
2023-05-15T22:25:49.043Z,8.70
2023-05-15T22:29:50.826Z,8.70
2023-05-15T22:33:55.022Z,8.27
2023-05-15T22:37:57.215Z,7.77
2023-05-15T22:41:59.056Z,8.80
2023-05-15T22:46:02.007Z,8.37
2023-05-15T22:50:04.592Z,8.93
2023-05-15T22:54:06.364Z,9.33
2023-05-15T22:58:08.149Z,8.67
2023-05-15T23:02:09.971Z,8.90
2023-05-15T23:06:16.987Z,11.40
2023-05-15T23:10:18.698Z,8.93
2023-05-15T23:14:21.759Z,8.67
2023-05-15T23:18:23.574Z,9.03
2023-05-15T23:22:25.594Z,9.40
2023-05-15T23:26:27.530Z,8.83
2023-05-15T23:30:29.453Z,9.03
2023-05-15T23:34:31.200Z,9.03
2023-05-15T23:38:33.034Z,9.63
2023-05-15T23:42:37.768Z,8.90
2023-05-15T23:46:39.714Z,8.77
2023-05-15T23:50:43.932Z,9.07
2023-05-15T23:54:45.660Z,10.10
2023-05-15T23:58:47.441Z,9.23
